Terminal Aerodrome Forecast
Issued by NWS

Home | Current Version | Previous Version | Text Only | Print | Product List | Glossary On
Versions: 1 2 3 4 5 6 7 8 9 10 11 12
000
FTUS45 KREV 272323
TAFCXP
TAF
KCXP 272323Z 2800/2824 35012G22KT P6SM VCSH FEW035 BKN060
     FM280300 33005KT P6SM SCT040 SCT200
     FM281800 06008KT P6SM FEW030 SCT200=

USA.gov is the U.S. government's official web portal to all federal, state and local government web resources and services.